createdAt,value
2017-10-11T00:00:54.130Z,0
2017-10-11T00:01:56.502Z,0
2017-10-11T00:02:59.245Z,0
2017-10-11T00:04:01.624Z,0
2017-10-11T00:05:04.005Z,0
2017-10-11T00:06:06.389Z,0
2017-10-11T00:07:08.765Z,0
2017-10-11T00:08:11.150Z,0
2017-10-11T00:09:13.523Z,0
2017-10-11T00:10:15.905Z,0
2017-10-11T00:11:18.280Z,0
2017-10-11T00:12:20.661Z,0
2017-10-11T00:13:23.043Z,0
2017-10-11T00:14:25.423Z,0
2017-10-11T00:15:27.800Z,0
2017-10-11T00:16:30.558Z,0
2017-10-11T00:17:32.935Z,0
2017-10-11T00:18:35.308Z,0
2017-10-11T00:19:37.688Z,0
2017-10-11T00:20:40.271Z,0
2017-10-11T00:21:43.013Z,0
2017-10-11T00:22:45.585Z,0
2017-10-11T00:23:47.962Z,0
2017-10-11T00:24:50.370Z,0
2017-10-11T00:25:52.736Z,0
2017-10-11T00:26:55.120Z,0
2017-10-11T00:27:57.499Z,0
2017-10-11T00:28:59.883Z,0
2017-10-11T00:30:02.255Z,0
2017-10-11T00:31:04.637Z,0
2017-10-11T00:32:07.034Z,0
2017-10-11T00:33:09.401Z,0
2017-10-11T00:34:11.774Z,0
2017-10-11T00:35:14.151Z,0
2017-10-11T00:36:16.523Z,0
2017-10-11T00:37:18.902Z,0
2017-10-11T00:38:21.281Z,0
2017-10-11T00:39:23.663Z,0
2017-10-11T00:40:26.043Z,0
2017-10-11T00:41:28.418Z,0
2017-10-11T00:42:30.804Z,0
2017-10-11T00:43:33.186Z,0
2017-10-11T00:44:35.565Z,0
2017-10-11T00:45:37.943Z,0
2017-10-11T00:46:40.323Z,0
2017-10-11T00:47:42.700Z,0
2017-10-11T00:48:45.434Z,0
2017-10-11T00:49:47.802Z,0
2017-10-11T00:50:50.175Z,0
2017-10-11T00:51:52.555Z,0
2017-10-11T00:52:54.925Z,0
2017-10-11T00:53:57.311Z,0
2017-10-11T00:54:59.691Z,0
2017-10-11T00:56:02.072Z,0
2017-10-11T00:57:04.459Z,0
2017-10-11T00:58:06.827Z,0
2017-10-11T00:59:09.214Z,0
2017-10-11T01:00:11.587Z,0
2017-10-11T01:01:13.973Z,0
2017-10-11T01:02:16.356Z,0
2017-10-11T01:03:18.726Z,0
2017-10-11T01:04:21.452Z,0
2017-10-11T01:05:23.838Z,0
2017-10-11T01:06:26.211Z,0
2017-10-11T01:07:28.585Z,0
2017-10-11T01:08:30.965Z,0
2017-10-11T01:09:33.349Z,0
2017-10-11T01:10:35.735Z,0
2017-10-11T01:11:38.111Z,0
2017-10-11T01:12:40.486Z,0
2017-10-11T01:13:42.869Z,0
2017-10-11T01:14:45.249Z,0
2017-10-11T01:15:47.628Z,0
2017-10-11T01:16:49.996Z,0
2017-10-11T01:17:52.376Z,0
2017-10-11T01:18:54.761Z,0
2017-10-11T01:19:57.134Z,0
2017-10-11T01:20:59.523Z,0
2017-10-11T01:22:01.892Z,0
2017-10-11T01:23:04.628Z,0
2017-10-11T01:24:07.019Z,0
2017-10-11T01:25:09.387Z,0
2017-10-11T01:26:11.764Z,0
2017-10-11T01:27:14.485Z,0
2017-10-11T01:28:17.217Z,0
2017-10-11T01:29:19.596Z,0
2017-10-11T01:30:21.969Z,0
2017-10-11T01:31:24.362Z,0
2017-10-11T01:32:26.738Z,0
2017-10-11T01:33:29.118Z,0
2017-10-11T01:34:31.843Z,0
2017-10-11T01:35:34.221Z,0
2017-10-11T01:36:36.601Z,0
2017-10-11T01:37:38.985Z,0
2017-10-11T01:38:41.359Z,0
2017-10-11T01:39:43.743Z,0
2017-10-11T01:40:46.124Z,0
2017-10-11T01:41:48.501Z,0
2017-10-11T01:42:50.883Z,0
2017-10-11T01:43:53.265Z,0
2017-10-11T01:44:55.647Z,0
2017-10-11T01:45:58.029Z,0
2017-10-11T01:47:00.395Z,0
2017-10-11T01:48:02.788Z,0
2017-10-11T01:49:05.162Z,0
2017-10-11T01:50:07.542Z,0
2017-10-11T01:51:09.915Z,0
2017-10-11T01:52:12.296Z,0
2017-10-11T01:53:14.667Z,0
2017-10-11T01:54:17.059Z,0
2017-10-11T01:55:19.430Z,0
2017-10-11T01:56:21.816Z,0
2017-10-11T01:57:24.188Z,0
2017-10-11T01:58:26.911Z,0
2017-10-11T01:59:29.294Z,0
2017-10-11T02:00:31.676Z,0
2017-10-11T02:01:34.412Z,0
2017-10-11T02:02:36.797Z,0
2017-10-11T02:03:39.171Z,0
2017-10-11T02:04:41.911Z,0
2017-10-11T02:05:44.291Z,0
2017-10-11T02:06:46.660Z,0
2017-10-11T02:07:49.040Z,0
2017-10-11T02:08:51.415Z,0
2017-10-11T02:09:53.799Z,0
2017-10-11T02:10:56.181Z,0
2017-10-11T02:11:58.911Z,0
2017-10-11T02:13:01.303Z,0
2017-10-11T02:14:03.678Z,0
2017-10-11T02:15:06.054Z,0
2017-10-11T02:16:08.429Z,0
2017-10-11T02:17:10.816Z,0
2017-10-11T02:18:13.188Z,0
2017-10-11T02:19:15.577Z,0
2017-10-11T02:20:17.956Z,0
2017-10-11T02:21:20.323Z,0
2017-10-11T02:22:22.709Z,0
2017-10-11T02:23:25.087Z,0
2017-10-11T02:24:27.468Z,0
2017-10-11T02:25:29.858Z,0
2017-10-11T02:26:32.233Z,0
2017-10-11T02:27:34.607Z,0
2017-10-11T02:28:36.984Z,0
2017-10-11T02:29:39.359Z,0
2017-10-11T02:30:41.742Z,0
2017-10-11T02:31:44.122Z,0
2017-10-11T02:32:46.503Z,0
2017-10-11T02:33:48.881Z,0
2017-10-11T02:34:51.257Z,0
2017-10-11T02:35:53.637Z,0
2017-10-11T02:36:56.019Z,0
2017-10-11T02:37:58.404Z,0
2017-10-11T02:39:00.780Z,0
2017-10-11T02:40:03.502Z,0
2017-10-11T02:41:05.882Z,0
2017-10-11T02:42:08.267Z,0
2017-10-11T02:43:10.984Z,0
2017-10-11T02:44:13.373Z,0
2017-10-11T02:45:15.755Z,0
2017-10-11T02:46:18.139Z,0
2017-10-11T02:47:33.302Z,0
2017-10-11T02:48:35.728Z,0
2017-10-11T02:49:38.213Z,0
2017-10-11T02:50:40.641Z,0
2017-10-11T02:51:43.078Z,0
2017-10-11T02:52:45.510Z,0
2017-10-11T02:53:47.948Z,0
2017-10-11T02:54:50.366Z,0
2017-10-11T02:55:52.801Z,0
2017-10-11T02:56:55.241Z,0
2017-10-11T02:57:57.667Z,0
2017-10-11T02:59:00.104Z,0
2017-10-11T03:00:02.526Z,0
2017-10-11T03:01:04.960Z,0
2017-10-11T03:02:07.403Z,0
2017-10-11T03:03:09.834Z,0
2017-10-11T03:04:12.260Z,0
2017-10-11T03:05:14.699Z,0
2017-10-11T03:06:17.137Z,0
2017-10-11T03:07:19.567Z,0
2017-10-11T03:08:22.005Z,0
2017-10-11T03:09:24.795Z,0
2017-10-11T03:10:27.228Z,0
2017-10-11T03:11:30.038Z,0
2017-10-11T03:12:32.820Z,0
2017-10-11T03:13:35.247Z,0
2017-10-11T03:14:38.035Z,0
2017-10-11T03:15:40.465Z,0
2017-10-11T03:16:42.901Z,0
2017-10-11T03:17:45.331Z,0
2017-10-11T03:18:47.746Z,0
2017-10-11T03:19:50.182Z,0
2017-10-11T03:20:52.622Z,0
2017-10-11T03:21:55.055Z,0
2017-10-11T03:22:57.849Z,0
2017-10-11T03:24:00.274Z,0
2017-10-11T03:25:02.713Z,0
2017-10-11T03:26:05.500Z,0
2017-10-11T03:27:07.931Z,0
2017-10-11T03:28:10.357Z,0
2017-10-11T03:29:12.793Z,0
2017-10-11T03:30:15.239Z,0
2017-10-11T03:31:17.669Z,0
2017-10-11T03:32:20.103Z,0
2017-10-11T03:33:22.540Z,0
2017-10-11T03:34:25.367Z,0
2017-10-11T03:35:27.806Z,0
2017-10-11T03:36:30.593Z,0
2017-10-11T03:37:33.011Z,0
2017-10-11T03:38:35.449Z,0
2017-10-11T03:39:37.890Z,0
2017-10-11T03:40:40.320Z,0
2017-10-11T03:41:42.757Z,0
2017-10-11T03:42:45.175Z,0
2017-10-11T03:43:47.968Z,0
2017-10-11T03:44:50.417Z,0
2017-10-11T03:45:53.194Z,0
2017-10-11T03:46:55.630Z,0
2017-10-11T03:47:58.073Z,0
2017-10-11T03:49:00.499Z,0
2017-10-11T03:50:02.944Z,0
2017-10-11T03:51:05.742Z,0
2017-10-11T03:52:08.162Z,0
2017-10-11T03:53:10.612Z,0
2017-10-11T03:54:13.057Z,0
2017-10-11T03:55:15.485Z,0
2017-10-11T03:56:17.912Z,0
2017-10-11T03:57:20.354Z,0
2017-10-11T03:58:23.149Z,0
2017-10-11T03:59:25.580Z,0
2017-10-11T04:00:28.020Z,0
2017-10-11T04:01:30.439Z,0
2017-10-11T04:02:32.884Z,0
2017-10-11T04:03:35.312Z,0
2017-10-11T04:04:37.746Z,0
2017-10-11T04:05:40.536Z,0
2017-10-11T04:06:42.965Z,0
2017-10-11T04:07:45.403Z,0
2017-10-11T04:08:47.839Z,0
2017-10-11T04:09:50.272Z,0
2017-10-11T04:10:52.702Z,0
2017-10-11T04:11:55.171Z,0
2017-10-11T04:12:57.607Z,0
2017-10-11T04:14:00.036Z,0
2017-10-11T04:15:02.479Z,0
2017-10-11T04:16:04.905Z,0
2017-10-11T04:17:07.343Z,0
2017-10-11T04:18:09.771Z,0
2017-10-11T04:19:12.208Z,0
2017-10-11T04:20:14.637Z,0
2017-10-11T04:21:17.074Z,0
2017-10-11T04:22:19.866Z,0
2017-10-11T04:23:22.301Z,0
2017-10-11T04:24:25.088Z,0
2017-10-11T04:25:27.904Z,0
2017-10-11T04:26:30.329Z,0
2017-10-11T04:27:32.769Z,0
2017-10-11T04:28:35.203Z,0
2017-10-11T04:29:37.641Z,0
2017-10-11T04:30:40.070Z,0
2017-10-11T04:31:42.859Z,0
2017-10-11T04:32:45.293Z,0
2017-10-11T04:33:47.723Z,0
2017-10-11T04:34:50.164Z,0
2017-10-11T04:35:52.602Z,0
2017-10-11T04:36:55.022Z,0
2017-10-11T04:37:57.815Z,0
2017-10-11T04:39:00.249Z,0
2017-10-11T04:40:02.691Z,0
2017-10-11T04:41:05.117Z,0
2017-10-11T04:42:07.548Z,0
2017-10-11T04:43:10.347Z,0
2017-10-11T04:44:12.776Z,0
2017-10-11T04:45:15.582Z,0
2017-10-11T04:46:18.021Z,0
2017-10-11T04:47:20.456Z,0
2017-10-11T04:48:22.893Z,0
2017-10-11T04:49:25.319Z,0
2017-10-11T04:50:27.757Z,0
2017-10-11T04:51:30.190Z,0
2017-10-11T04:52:32.622Z,0
2017-10-11T04:53:35.087Z,0
2017-10-11T04:54:37.519Z,0
2017-10-11T04:55:39.954Z,0
2017-10-11T04:56:42.396Z,0
2017-10-11T04:57:44.830Z,0
2017-10-11T04:58:47.264Z,0
2017-10-11T04:59:49.705Z,0
2017-10-11T05:00:52.121Z,0
2017-10-11T05:01:54.559Z,0
2017-10-11T05:02:56.994Z,0
2017-10-11T05:03:59.780Z,0
2017-10-11T05:05:02.204Z,0
2017-10-11T05:06:04.641Z,0
2017-10-11T05:07:07.065Z,0
2017-10-11T05:08:09.510Z,0
2017-10-11T05:09:11.940Z,0
2017-10-11T05:10:14.386Z,0
2017-10-11T05:11:16.809Z,0
2017-10-11T05:12:19.241Z,0
2017-10-11T05:13:21.681Z,0
2017-10-11T05:14:24.116Z,0
2017-10-11T05:15:26.539Z,0
2017-10-11T05:16:28.976Z,0
2017-10-11T05:17:31.415Z,0
2017-10-11T05:18:33.839Z,0
2017-10-11T05:19:36.620Z,0
2017-10-11T05:20:39.065Z,0
2017-10-11T05:21:41.494Z,0
2017-10-11T05:22:43.932Z,0
2017-10-11T05:23:46.370Z,0
2017-10-11T05:24:48.794Z,0
2017-10-11T05:25:51.230Z,0
2017-10-11T05:26:53.661Z,0
2017-10-11T05:27:56.100Z,0
2017-10-11T05:28:58.534Z,0
2017-10-11T05:30:01.332Z,0
2017-10-11T05:31:04.117Z,0
2017-10-11T05:32:06.561Z,0
2017-10-11T05:33:08.989Z,0
2017-10-11T05:34:11.781Z,0
2017-10-11T05:35:14.214Z,0
2017-10-11T05:36:16.651Z,0
2017-10-11T05:37:19.088Z,0
2017-10-11T05:38:21.513Z,0
2017-10-11T05:39:23.956Z,0
2017-10-11T05:40:26.390Z,0
2017-10-11T05:41:29.906Z,0
2017-10-11T05:42:32.337Z,0
2017-10-11T05:43:34.761Z,1
2017-10-11T05:44:37.564Z,1
2017-10-11T05:45:39.995Z,1
2017-10-11T05:46:42.778Z,1
2017-10-11T05:47:45.206Z,1
2017-10-11T05:48:47.995Z,2
2017-10-11T05:49:50.427Z,2
2017-10-11T05:50:53.231Z,2
2017-10-11T05:51:55.652Z,3
2017-10-11T05:52:58.082Z,3
2017-10-11T05:54:00.513Z,3
2017-10-11T05:55:03.316Z,3
2017-10-11T05:56:05.731Z,3
2017-10-11T05:57:08.186Z,4
2017-10-11T05:58:10.616Z,4
2017-10-11T05:59:13.401Z,5
2017-10-11T06:00:15.848Z,5
2017-10-11T06:01:18.286Z,5
2017-10-11T06:02:21.085Z,5
2017-10-11T06:03:23.529Z,5
2017-10-11T06:04:25.958Z,5
2017-10-11T06:05:28.386Z,6
2017-10-11T06:06:30.831Z,6
2017-10-11T06:07:33.610Z,6
2017-10-11T06:08:36.049Z,7
2017-10-11T06:09:38.490Z,8
2017-10-11T06:10:40.921Z,8
2017-10-11T06:11:43.356Z,9
2017-10-11T06:12:45.790Z,11
2017-10-11T06:13:48.212Z,12
2017-10-11T06:14:50.671Z,12
2017-10-11T06:15:53.443Z,11
2017-10-11T06:16:55.883Z,12
2017-10-11T06:17:58.315Z,13
2017-10-11T06:19:00.746Z,13
2017-10-11T06:20:03.185Z,12
2017-10-11T06:21:05.604Z,14
2017-10-11T06:22:08.057Z,15
2017-10-11T06:23:10.484Z,16
2017-10-11T06:24:12.911Z,15
2017-10-11T06:25:15.345Z,15
2017-10-11T06:26:17.783Z,15
2017-10-11T06:27:20.574Z,15
2017-10-11T06:28:23.723Z,16
2017-10-11T06:29:26.150Z,15
2017-10-11T06:30:28.582Z,14
2017-10-11T06:31:31.028Z,13
2017-10-11T06:32:33.823Z,12
2017-10-11T06:33:36.250Z,12
2017-10-11T06:34:38.686Z,11
2017-10-11T06:35:41.119Z,13
2017-10-11T06:36:43.554Z,17
2017-10-11T06:37:45.995Z,18
2017-10-11T06:38:48.420Z,19
2017-10-11T06:39:50.852Z,18
2017-10-11T06:40:53.284Z,18
2017-10-11T06:41:55.721Z,16
2017-10-11T06:42:58.147Z,14
2017-10-11T06:44:00.586Z,14
2017-10-11T06:45:03.016Z,14
2017-10-11T06:46:05.452Z,17
2017-10-11T06:47:07.887Z,18
2017-10-11T06:48:10.317Z,21
2017-10-11T06:49:12.747Z,22
2017-10-11T06:50:15.180Z,21
2017-10-11T06:51:17.611Z,21
2017-10-11T06:52:20.039Z,20
2017-10-11T06:53:22.477Z,18
2017-10-11T06:54:24.904Z,17
2017-10-11T06:55:27.323Z,16
2017-10-11T06:56:29.763Z,14
2017-10-11T06:57:32.558Z,12
2017-10-11T06:58:34.990Z,13
2017-10-11T06:59:37.429Z,13
2017-10-11T07:00:39.859Z,13
2017-10-11T07:01:42.300Z,13
2017-10-11T07:02:44.741Z,13
2017-10-11T07:03:47.528Z,15
2017-10-11T07:04:49.967Z,15
2017-10-11T07:05:52.398Z,13
2017-10-11T07:06:54.822Z,13
2017-10-11T07:07:57.257Z,10
2017-10-11T07:08:59.688Z,8
2017-10-11T07:10:02.124Z,10
2017-10-11T07:11:04.919Z,14
2017-10-11T07:12:07.352Z,17
2017-10-11T07:13:09.781Z,16
2017-10-11T07:14:12.230Z,20
2017-10-11T07:15:14.661Z,20
2017-10-11T07:16:17.097Z,19
2017-10-11T07:17:19.524Z,11
2017-10-11T07:18:21.968Z,16
2017-10-11T07:19:24.393Z,23
2017-10-11T07:20:26.834Z,26
2017-10-11T07:21:29.259Z,28
2017-10-11T07:22:31.691Z,30
2017-10-11T07:23:34.129Z,28
2017-10-11T07:24:36.564Z,22
2017-10-11T07:25:38.996Z,14
2017-10-11T07:26:41.444Z,15
2017-10-11T07:27:44.234Z,21
2017-10-11T07:28:47.042Z,26
2017-10-11T07:29:49.833Z,31
2017-10-11T07:30:52.624Z,34
2017-10-11T07:31:55.063Z,36
2017-10-11T07:32:57.491Z,37
2017-10-11T07:33:59.925Z,37
2017-10-11T07:35:02.359Z,41
2017-10-11T07:36:04.782Z,41
2017-10-11T07:37:07.219Z,34
2017-10-11T07:38:09.659Z,30
2017-10-11T07:39:12.091Z,27
2017-10-11T07:40:14.517Z,32
2017-10-11T07:41:16.955Z,35
2017-10-11T07:42:19.392Z,33
2017-10-11T07:43:21.835Z,35
2017-10-11T07:44:24.275Z,30
2017-10-11T07:45:26.708Z,30
2017-10-11T07:46:29.496Z,30
2017-10-11T07:47:31.941Z,27
2017-10-11T07:48:34.364Z,27
2017-10-11T07:49:36.799Z,35
2017-10-11T07:50:39.595Z,40
2017-10-11T07:51:42.381Z,40
2017-10-11T07:52:44.817Z,40
2017-10-11T07:53:47.249Z,33
2017-10-11T07:54:50.054Z,33
2017-10-11T07:55:52.488Z,33
2017-10-11T07:56:54.918Z,41
2017-10-11T07:57:57.364Z,39
2017-10-11T07:58:59.789Z,52
2017-10-11T08:00:02.220Z,43
2017-10-11T08:01:04.651Z,37
2017-10-11T08:02:07.419Z,42
2017-10-11T08:03:10.216Z,38
2017-10-11T08:04:13.007Z,38
2017-10-11T08:05:15.444Z,54
2017-10-11T08:06:17.869Z,40
2017-10-11T08:07:20.315Z,33
2017-10-11T08:08:22.741Z,32
2017-10-11T08:09:25.182Z,30
2017-10-11T08:10:27.625Z,37
2017-10-11T08:11:30.037Z,52
2017-10-11T08:12:32.481Z,54
2017-10-11T08:13:34.911Z,34
2017-10-11T08:14:37.349Z,40
2017-10-11T08:15:39.781Z,49
2017-10-11T08:16:42.217Z,76
2017-10-11T08:17:44.646Z,73
2017-10-11T08:18:47.092Z,49
2017-10-11T08:19:49.526Z,44
2017-10-11T08:20:51.960Z,37
2017-10-11T08:21:54.394Z,35
2017-10-11T08:22:56.831Z,47
2017-10-11T08:23:59.617Z,37
2017-10-11T08:25:02.059Z,35
2017-10-11T08:26:04.486Z,35
2017-10-11T08:27:06.916Z,37
2017-10-11T08:28:09.362Z,43
2017-10-11T08:29:11.789Z,34
2017-10-11T08:30:14.230Z,25
2017-10-11T08:31:16.657Z,20
2017-10-11T08:32:19.090Z,18
2017-10-11T08:33:21.540Z,17
2017-10-11T08:34:24.330Z,22
2017-10-11T08:35:26.764Z,22
2017-10-11T08:36:29.201Z,20
2017-10-11T08:37:31.654Z,36
2017-10-11T08:38:34.085Z,39
2017-10-11T08:39:36.512Z,39
2017-10-11T08:40:38.941Z,34
2017-10-11T08:41:41.382Z,36
2017-10-11T08:42:43.815Z,35
2017-10-11T08:43:46.251Z,34
2017-10-11T08:44:48.677Z,35
2017-10-11T08:45:51.109Z,35
2017-10-11T08:46:53.563Z,50
2017-10-11T08:47:55.993Z,44
2017-10-11T08:48:58.428Z,40
2017-10-11T08:50:00.874Z,39
2017-10-11T08:51:03.309Z,35
2017-10-11T08:52:05.739Z,40
2017-10-11T08:53:08.180Z,35
2017-10-11T08:54:10.975Z,33
2017-10-11T08:55:13.764Z,40
2017-10-11T08:56:16.200Z,39
2017-10-11T08:57:18.634Z,40
2017-10-11T08:58:21.066Z,45
2017-10-11T08:59:23.517Z,39
2017-10-11T09:00:26.297Z,38
2017-10-11T09:01:29.081Z,40
2017-10-11T09:02:31.521Z,39
2017-10-11T09:03:33.947Z,40
2017-10-11T09:04:36.386Z,40
2017-10-11T09:05:39.185Z,37
2017-10-11T09:06:41.618Z,38
2017-10-11T09:07:44.055Z,44
2017-10-11T09:08:46.481Z,51
2017-10-11T09:09:49.377Z,56
2017-10-11T09:10:51.794Z,58
2017-10-11T09:11:54.243Z,59
2017-10-11T09:12:57.023Z,56
2017-10-11T09:13:59.819Z,59
2017-10-11T09:15:02.254Z,54
2017-10-11T09:16:04.696Z,55
2017-10-11T09:17:07.126Z,48
2017-10-11T09:18:09.566Z,32
2017-10-11T09:19:12.001Z,24
2017-10-11T09:20:14.422Z,20
2017-10-11T09:21:17.216Z,23
2017-10-11T09:22:19.650Z,21
2017-10-11T09:23:22.082Z,19
2017-10-11T09:24:24.516Z,19
2017-10-11T09:25:26.948Z,23
2017-10-11T09:26:29.379Z,20
2017-10-11T09:27:31.831Z,24
2017-10-11T09:28:34.265Z,27
2017-10-11T09:29:36.698Z,29
2017-10-11T09:30:39.126Z,26
2017-10-11T09:31:41.565Z,24
2017-10-11T09:32:44.344Z,15
2017-10-11T09:33:46.784Z,18
2017-10-11T09:34:49.211Z,19
2017-10-11T09:35:51.654Z,27
2017-10-11T09:36:54.088Z,27
2017-10-11T09:37:56.529Z,25
2017-10-11T09:38:58.966Z,27
2017-10-11T09:40:01.395Z,22
2017-10-11T09:41:03.829Z,18
2017-10-11T09:42:06.276Z,22
2017-10-11T09:43:08.709Z,21
2017-10-11T09:44:11.144Z,20
2017-10-11T09:45:13.581Z,22
2017-10-11T09:46:16.373Z,34
2017-10-11T09:47:18.802Z,37
2017-10-11T09:48:21.245Z,38
2017-10-11T09:49:23.683Z,37
2017-10-11T09:50:26.119Z,38
2017-10-11T09:51:28.549Z,36
2017-10-11T09:52:30.988Z,38
2017-10-11T09:53:33.431Z,35
2017-10-11T09:54:36.240Z,29
2017-10-11T09:55:38.666Z,38
2017-10-11T09:56:41.110Z,35
2017-10-11T09:57:43.543Z,35
2017-10-11T09:58:45.982Z,46
2017-10-11T09:59:48.414Z,64
2017-10-11T10:00:50.844Z,77
2017-10-11T10:01:53.642Z,97
2017-10-11T10:02:56.083Z,134
2017-10-11T10:03:58.528Z,159
2017-10-11T10:05:00.967Z,141
2017-10-11T10:06:03.388Z,184
2017-10-11T10:07:05.833Z,127
2017-10-11T10:08:08.273Z,248
2017-10-11T10:09:11.053Z,144
2017-10-11T10:10:13.496Z,182
2017-10-11T10:11:15.933Z,224
2017-10-11T10:12:18.368Z,158
2017-10-11T10:13:20.816Z,202
2017-10-11T10:14:23.243Z,110
2017-10-11T10:15:25.679Z,94
2017-10-11T10:16:28.108Z,67
2017-10-11T10:17:30.549Z,82
2017-10-11T10:18:33.338Z,69
2017-10-11T10:19:35.768Z,61
2017-10-11T10:20:38.209Z,46
2017-10-11T10:21:40.639Z,40
2017-10-11T10:22:43.076Z,34
2017-10-11T10:23:45.858Z,33
2017-10-11T10:24:48.302Z,35
2017-10-11T10:25:50.725Z,31
2017-10-11T10:26:53.171Z,32
2017-10-11T10:27:55.600Z,26
2017-10-11T10:28:58.034Z,34
2017-10-11T10:30:00.466Z,51
2017-10-11T10:31:03.260Z,53
2017-10-11T10:32:05.690Z,85
2017-10-11T10:33:08.143Z,98
2017-10-11T10:34:10.576Z,95
2017-10-11T10:35:13.009Z,90
2017-10-11T10:36:15.439Z,85
2017-10-11T10:37:17.873Z,80
2017-10-11T10:38:20.302Z,73
2017-10-11T10:39:22.755Z,71
2017-10-11T10:40:25.174Z,62
2017-10-11T10:41:27.610Z,51
2017-10-11T10:42:30.046Z,54
2017-10-11T10:43:32.479Z,50
2017-10-11T10:44:34.913Z,49
2017-10-11T10:45:37.356Z,51
2017-10-11T10:46:39.784Z,50
2017-10-11T10:47:42.226Z,50
2017-10-11T10:48:44.662Z,60
2017-10-11T10:49:47.098Z,67
2017-10-11T10:50:49.525Z,67
2017-10-11T10:51:52.328Z,66
2017-10-11T10:52:54.765Z,50
2017-10-11T10:53:57.194Z,36
2017-10-11T10:54:59.625Z,36
2017-10-11T10:56:02.053Z,36
2017-10-11T10:57:04.485Z,32
2017-10-11T10:58:06.940Z,41
2017-10-11T10:59:09.367Z,44
2017-10-11T11:00:11.795Z,35
2017-10-11T11:01:14.947Z,34
2017-10-11T11:02:17.388Z,27
2017-10-11T11:03:19.816Z,28
2017-10-11T11:04:22.256Z,28
2017-10-11T11:05:25.053Z,33
2017-10-11T11:06:27.490Z,38
2017-10-11T11:07:29.934Z,36
2017-10-11T11:08:33.079Z,36
2017-10-11T11:09:35.516Z,28
2017-10-11T11:10:38.293Z,28
2017-10-11T11:11:41.086Z,25
2017-10-11T11:12:43.531Z,24
2017-10-11T11:13:46.329Z,23
2017-10-11T11:14:48.755Z,23
2017-10-11T11:15:51.190Z,23
2017-10-11T11:16:53.631Z,23
2017-10-11T11:17:56.440Z,26
2017-10-11T11:18:58.876Z,21
2017-10-11T11:20:01.321Z,26
2017-10-11T11:21:03.751Z,22
2017-10-11T11:22:06.551Z,22
2017-10-11T11:23:08.989Z,22
2017-10-11T11:24:11.407Z,19
2017-10-11T11:25:13.855Z,21
2017-10-11T11:26:16.287Z,21
2017-10-11T11:27:18.722Z,22
2017-10-11T11:28:21.157Z,22
2017-10-11T11:29:23.598Z,20
2017-10-11T11:30:26.027Z,25
2017-10-11T11:31:28.465Z,22
2017-10-11T11:32:30.901Z,23
2017-10-11T11:33:33.695Z,21
2017-10-11T11:34:36.133Z,23
2017-10-11T11:35:38.563Z,23
2017-10-11T11:36:41.360Z,25
2017-10-11T11:37:43.794Z,27
2017-10-11T11:38:46.216Z,26
2017-10-11T11:39:48.665Z,24
2017-10-11T11:40:51.100Z,24
2017-10-11T11:41:53.535Z,25
2017-10-11T11:42:55.979Z,26
2017-10-11T11:43:58.776Z,23
2017-10-11T11:45:01.208Z,23
2017-10-11T11:46:03.664Z,22
2017-10-11T11:47:06.089Z,24
2017-10-11T11:48:08.507Z,22
2017-10-11T11:49:10.947Z,24
2017-10-11T11:50:13.397Z,25
2017-10-11T11:51:15.833Z,22
2017-10-11T11:52:18.273Z,21
2017-10-11T11:53:21.077Z,19
2017-10-11T11:54:23.506Z,22
2017-10-11T11:55:25.948Z,17
2017-10-11T11:56:28.384Z,17
2017-10-11T11:57:30.808Z,20
2017-10-11T11:58:33.247Z,20
2017-10-11T11:59:35.684Z,18
2017-10-11T12:00:38.119Z,15
2017-10-11T12:01:40.567Z,17
2017-10-11T12:02:43.001Z,16
2017-10-11T12:03:45.438Z,16
2017-10-11T12:04:48.239Z,14
2017-10-11T12:05:51.047Z,16
2017-10-11T12:06:53.480Z,14
2017-10-11T12:07:55.918Z,15
2017-10-11T12:08:58.349Z,15
2017-10-11T12:10:00.790Z,15
2017-10-11T12:11:03.228Z,13
2017-10-11T12:12:06.003Z,14
2017-10-11T12:13:08.447Z,14
2017-10-11T12:14:10.889Z,15
2017-10-11T12:15:13.321Z,15
2017-10-11T12:16:15.758Z,15
2017-10-11T12:17:18.184Z,15
2017-10-11T12:18:20.627Z,13
2017-10-11T12:19:23.061Z,13
2017-10-11T12:20:25.494Z,16
2017-10-11T12:21:27.947Z,13
2017-10-11T12:22:30.384Z,17
2017-10-11T12:23:32.805Z,16
2017-10-11T12:24:35.246Z,17
2017-10-11T12:25:37.681Z,16
2017-10-11T12:26:40.113Z,18
2017-10-11T12:27:42.558Z,17
2017-10-11T12:28:45.336Z,17
2017-10-11T12:29:47.771Z,17
2017-10-11T12:30:50.218Z,21
2017-10-11T12:31:52.643Z,19
2017-10-11T12:32:55.082Z,19
2017-10-11T12:33:58.224Z,21
2017-10-11T12:35:00.651Z,21
2017-10-11T12:36:03.093Z,22
2017-10-11T12:37:05.527Z,25
2017-10-11T12:38:08.335Z,26
2017-10-11T12:39:10.770Z,21
2017-10-11T12:40:13.209Z,21
2017-10-11T12:41:15.636Z,21
2017-10-11T12:42:18.087Z,21
2017-10-11T12:43:20.517Z,22
2017-10-11T12:44:22.953Z,24
2017-10-11T12:45:25.765Z,28
2017-10-11T12:46:28.204Z,27
2017-10-11T12:47:30.627Z,23
2017-10-11T12:48:33.078Z,25
2017-10-11T12:49:35.512Z,24
2017-10-11T12:50:37.950Z,24
2017-10-11T12:51:40.384Z,25
2017-10-11T12:52:42.816Z,24
2017-10-11T12:53:45.243Z,20
2017-10-11T12:54:47.682Z,22
2017-10-11T12:55:50.111Z,21
2017-10-11T12:56:52.544Z,21
2017-10-11T12:57:55.331Z,20
2017-10-11T12:58:57.767Z,21
2017-10-11T13:00:00.205Z,21
2017-10-11T13:01:02.639Z,21
2017-10-11T13:02:05.065Z,22
2017-10-11T13:03:07.509Z,21
2017-10-11T13:04:09.941Z,22
2017-10-11T13:05:12.736Z,20
2017-10-11T13:06:15.168Z,18
2017-10-11T13:07:17.609Z,17
2017-10-11T13:08:20.033Z,18
2017-10-11T13:09:22.485Z,19
2017-10-11T13:10:24.909Z,17
2017-10-11T13:11:27.337Z,18
2017-10-11T13:12:29.778Z,18
2017-10-11T13:13:32.211Z,19
2017-10-11T13:14:34.997Z,20
2017-10-11T13:15:38.158Z,21
2017-10-11T13:16:40.589Z,22
2017-10-11T13:17:43.026Z,18
2017-10-11T13:18:45.480Z,18
2017-10-11T13:19:47.913Z,18
2017-10-11T13:20:50.346Z,18
2017-10-11T13:21:52.779Z,20
2017-10-11T13:22:55.212Z,20
2017-10-11T13:23:57.652Z,20
2017-10-11T13:25:00.448Z,23
2017-10-11T13:26:02.882Z,20
2017-10-11T13:27:05.315Z,22
2017-10-11T13:28:07.765Z,27
2017-10-11T13:29:10.200Z,26
2017-10-11T13:30:12.636Z,21
2017-10-11T13:31:15.075Z,24
2017-10-11T13:32:17.507Z,25
2017-10-11T13:33:19.952Z,24
2017-10-11T13:34:22.395Z,22
2017-10-11T13:35:24.825Z,20
2017-10-11T13:36:27.265Z,21
2017-10-11T13:37:29.697Z,19
2017-10-11T13:38:32.130Z,19
2017-10-11T13:39:34.564Z,20
2017-10-11T13:40:37.008Z,21
2017-10-11T13:41:39.441Z,19
2017-10-11T13:42:41.872Z,17
2017-10-11T13:43:44.312Z,16
2017-10-11T13:44:46.745Z,17
2017-10-11T13:45:49.539Z,16
2017-10-11T13:46:52.327Z,14
2017-10-11T13:47:55.141Z,16
2017-10-11T13:48:57.577Z,16
2017-10-11T13:50:00.009Z,13
2017-10-11T13:51:02.444Z,15
2017-10-11T13:52:04.862Z,15
2017-10-11T13:53:07.307Z,14
2017-10-11T13:54:09.740Z,15
2017-10-11T13:55:24.876Z,14
2017-10-11T13:56:27.251Z,14
2017-10-11T13:57:29.648Z,14
2017-10-11T13:58:32.020Z,14
2017-10-11T13:59:34.399Z,16
2017-10-11T14:00:36.793Z,14
2017-10-11T14:01:39.163Z,12
2017-10-11T14:02:41.544Z,16
2017-10-11T14:03:43.928Z,15
2017-10-11T14:04:46.308Z,13
2017-10-11T14:05:48.685Z,13
2017-10-11T14:06:51.077Z,13
2017-10-11T14:07:53.464Z,13
2017-10-11T14:08:56.201Z,11
2017-10-11T14:09:58.927Z,13
2017-10-11T14:11:01.304Z,17
2017-10-11T14:12:03.693Z,18
2017-10-11T14:13:06.074Z,18
2017-10-11T14:14:08.833Z,19
2017-10-11T14:15:11.214Z,14
2017-10-11T14:16:13.598Z,13
2017-10-11T14:17:15.988Z,14
2017-10-11T14:18:18.357Z,15
2017-10-11T14:19:20.756Z,15
2017-10-11T14:20:23.132Z,16
2017-10-11T14:21:25.511Z,17
2017-10-11T14:22:28.252Z,20
2017-10-11T14:23:30.632Z,22
2017-10-11T14:24:33.011Z,26
2017-10-11T14:25:35.404Z,29
2017-10-11T14:26:37.778Z,30
2017-10-11T14:27:40.166Z,28
2017-10-11T14:28:42.548Z,25
2017-10-11T14:29:44.934Z,23
2017-10-11T14:30:47.319Z,19
2017-10-11T14:31:49.703Z,16
2017-10-11T14:32:52.079Z,17
2017-10-11T14:33:54.465Z,18
2017-10-11T14:34:57.193Z,18
2017-10-11T14:35:59.584Z,21
2017-10-11T14:37:01.965Z,21
2017-10-11T14:38:04.357Z,20
2017-10-11T14:39:06.735Z,20
2017-10-11T14:40:09.129Z,18
2017-10-11T14:41:11.503Z,18
2017-10-11T14:42:13.892Z,18
2017-10-11T14:43:16.288Z,18
2017-10-11T14:44:18.661Z,18
2017-10-11T14:45:21.049Z,16
2017-10-11T14:46:23.432Z,19
2017-10-11T14:47:25.816Z,18
2017-10-11T14:48:28.220Z,18
2017-10-11T14:49:30.604Z,19
2017-10-11T14:50:32.979Z,19
2017-10-11T14:51:35.714Z,19
2017-10-11T14:52:38.086Z,19
2017-10-11T14:53:40.482Z,17
2017-10-11T14:54:42.863Z,14
2017-10-11T14:55:45.244Z,15
2017-10-11T14:56:47.620Z,16
2017-10-11T14:57:50.360Z,17
2017-10-11T14:58:52.741Z,18
2017-10-11T14:59:55.127Z,19
2017-10-11T15:00:57.511Z,20
2017-10-11T15:01:59.892Z,24
2017-10-11T15:03:02.279Z,25
2017-10-11T15:04:04.663Z,24